SAS1817 LKPR-EKCH
Flight info
| Callsign | SAS1817 |
|---|---|
| Flight time | 0h 55m |
| Altitude | 36000 |
| Route | VENOX5N VENOX DCT DEKOV Y621 GARKI DCT POGAB DCT GEVNI T239 PEROM T298 MONAK MONAK5A |
| Aircraft | A320/M-SDE3FGHIRWY/LB1 |
Departure
| Time | 2026-04-22 18:25 |
|---|---|
| Airport | Václav Havel Airport Prague (LKPR) |
Arrival
| Time | 2026-04-22 19:20 |
|---|---|
| Airport | Copenhagen Kastrup Airport (EKCH) |
| Time | Latitude | Longitude | Altitude | Speed | Heading |
|---|---|---|---|---|---|
| 2026-04-22 17:56 | 50.10596 | 14.26282 | 1176 ft | 0 kts | 34° |
| 2026-04-22 18:07 | 50.10587 | 14.26273 | 1177 ft | 2 kts | 34° |
| 2026-04-22 18:07 | 50.10573 | 14.26258 | 1185 ft | 2 kts | 34° |
| 2026-04-22 18:07 | 50.10559 | 14.26243 | 1177 ft | 2 kts | 34° |
| 2026-04-22 18:07 | 50.10545 | 14.26227 | 1176 ft | 2 kts | 9° |
| 2026-04-22 18:08 | 50.10529 | 14.26231 | 1175 ft | 1 kts | 303° |
| 2026-04-22 18:10 | 50.10549 | 14.26169 | 1177 ft | 9 kts | 301° |
| 2026-04-22 18:10 | 50.10556 | 14.26152 | 1176 ft | 0 kts | 302° |
| 2026-04-22 18:10 | 50.10565 | 14.26132 | 1175 ft | 9 kts | 304° |
| 2026-04-22 18:11 | 50.10574 | 14.26025 | 1174 ft | 10 kts | 239° |
| 2026-04-22 18:11 | 50.10532 | 14.25980 | 1181 ft | 7 kts | 197° |
| 2026-04-22 18:11 | 50.10482 | 14.26015 | 1185 ft | 11 kts | 131° |
| 2026-04-22 18:11 | 50.10429 | 14.26124 | 1187 ft | 16 kts | 127° |
| 2026-04-22 18:12 | 50.10349 | 14.26290 | 1190 ft | 18 kts | 127° |
| 2026-04-22 18:12 | 50.10281 | 14.26432 | 1193 ft | 15 kts | 127° |
| 2026-04-22 18:12 | 50.10241 | 14.26514 | 1195 ft | 15 kts | 127° |
| 2026-04-22 18:12 | 50.10148 | 14.26706 | 1197 ft | 16 kts | 127° |
| 2026-04-22 18:13 | 50.10089 | 14.26829 | 1202 ft | 15 kts | 127° |
| 2026-04-22 18:13 | 50.10013 | 14.26985 | 1204 ft | 18 kts | 126° |
| 2026-04-22 18:13 | 50.09946 | 14.27125 | 1206 ft | 15 kts | 127° |
| 2026-04-22 18:13 | 50.09876 | 14.27271 | 1204 ft | 23 kts | 128° |
| 2026-04-22 18:14 | 50.09768 | 14.27446 | 1206 ft | 21 kts | 136° |
| 2026-04-22 18:14 | 50.09669 | 14.27598 | 1207 ft | 19 kts | 135° |
| 2026-04-22 18:14 | 50.09582 | 14.27728 | 1209 ft | 16 kts | 136° |
| 2026-04-22 18:14 | 50.09514 | 14.27832 | 1212 ft | 12 kts | 134° |
| 2026-04-22 18:15 | 50.09468 | 14.27904 | 1215 ft | 7 kts | 135° |
| 2026-04-22 18:15 | 50.09420 | 14.27979 | 1217 ft | 11 kts | 135° |
| 2026-04-22 18:15 | 50.09375 | 14.28050 | 1220 ft | 8 kts | 134° |
| 2026-04-22 18:15 | 50.09325 | 14.28127 | 1222 ft | 9 kts | 135° |
| 2026-04-22 18:16 | 50.09292 | 14.28180 | 1224 ft | 5 kts | 135° |
| 2026-04-22 18:16 | 50.09291 | 14.28181 | 1224 ft | 0 kts | 135° |
| 2026-04-22 18:17 | 50.09272 | 14.28210 | 1225 ft | 4 kts | 135° |
| 2026-04-22 18:18 | 50.09261 | 14.28228 | 1226 ft | 2 kts | 135° |
| 2026-04-22 18:18 | 50.09252 | 14.28241 | 1226 ft | 0 kts | 136° |
| 2026-04-22 18:19 | 50.09250 | 14.28244 | 1226 ft | 3 kts | 136° |
| 2026-04-22 18:19 | 50.09207 | 14.28288 | 1229 ft | 7 kts | 160° |
| 2026-04-22 18:19 | 50.09162 | 14.28285 | 1233 ft | 6 kts | 204° |
| 2026-04-22 18:20 | 50.09145 | 14.28267 | 1245 ft | 0 kts | 216° |
| 2026-04-22 18:21 | 50.09142 | 14.28264 | 1243 ft | 4 kts | 216° |
| 2026-04-22 18:22 | 50.09083 | 14.28190 | 1243 ft | 12 kts | 223° |
| 2026-04-22 18:22 | 50.09091 | 14.28079 | 1233 ft | 0 kts | 307° |
| 2026-04-22 18:24 | 50.09096 | 14.28069 | 1233 ft | 7 kts | 307° |
| 2026-04-22 18:24 | 50.09727 | 14.26760 | 1216 ft | 138 kts | 307° |
| 2026-04-22 18:25 | 50.10361 | 14.25457 | 1655 ft | 149 kts | 309° |
| 2026-04-22 18:25 | 50.10989 | 14.24182 | 2429 ft | 152 kts | 310° |
| 2026-04-22 18:25 | 50.11676 | 14.22787 | 2824 ft | 173 kts | 310° |
| 2026-04-22 18:26 | 50.13326 | 14.19371 | 3546 ft | 222 kts | 309° |
| 2026-04-22 18:26 | 50.14301 | 14.17344 | 4061 ft | 243 kts | 309° |
| 2026-04-22 18:26 | 50.15330 | 14.15194 | 4944 ft | 251 kts | 309° |
| 2026-04-22 18:26 | 50.16388 | 14.12988 | 5842 ft | 256 kts | 311° |
| 2026-04-22 18:27 | 50.17740 | 14.11201 | 6670 ft | 259 kts | 339° |
| 2026-04-22 18:27 | 50.19506 | 14.10834 | 7479 ft | 260 kts | 10° |
| 2026-04-22 18:27 | 50.21271 | 14.11507 | 8414 ft | 262 kts | 15° |
| 2026-04-22 18:27 | 50.23062 | 14.12068 | 9351 ft | 264 kts | 7° |
| 2026-04-22 18:28 | 50.24898 | 14.12346 | 10292 ft | 266 kts | 6° |
| 2026-04-22 18:28 | 50.26796 | 14.12625 | 10774 ft | 285 kts | 6° |
| 2026-04-22 18:28 | 50.28847 | 14.12924 | 11160 ft | 304 kts | 6° |
| 2026-04-22 18:28 | 50.30979 | 14.13232 | 11876 ft | 311 kts | 6° |
| 2026-04-22 18:29 | 50.33144 | 14.13543 | 12682 ft | 314 kts | 6° |
| 2026-04-22 18:29 | 50.35334 | 14.13858 | 13485 ft | 318 kts | 7° |
| 2026-04-22 18:29 | 50.37548 | 14.14174 | 14247 ft | 321 kts | 7° |
| 2026-04-22 18:29 | 50.39754 | 14.14487 | 14915 ft | 325 kts | 7° |
| 2026-04-22 18:30 | 50.42015 | 14.14810 | 15584 ft | 328 kts | 7° |
| 2026-04-22 18:30 | 50.46647 | 14.15475 | 16925 ft | 336 kts | 8° |
| 2026-04-22 18:30 | 50.48955 | 14.15807 | 17568 ft | 340 kts | 8° |
| 2026-04-22 18:31 | 50.51321 | 14.16149 | 18230 ft | 343 kts | 8° |
| 2026-04-22 18:31 | 50.53713 | 14.16497 | 18836 ft | 347 kts | 8° |
| 2026-04-22 18:31 | 50.56128 | 14.16847 | 19389 ft | 351 kts | 8° |
| 2026-04-22 18:31 | 50.58568 | 14.17196 | 19938 ft | 354 kts | 8° |
| 2026-04-22 18:32 | 50.60242 | 14.17433 | 20210 ft | 361 kts | 8° |
| 2026-04-22 18:32 | 50.63643 | 14.17920 | 20380 ft | 381 kts | 8° |
| 2026-04-22 18:32 | 50.66329 | 14.18308 | 20498 ft | 394 kts | 8° |
| 2026-04-22 18:32 | 50.69094 | 14.18705 | 20747 ft | 403 kts | 8° |
| 2026-04-22 18:33 | 50.71904 | 14.19104 | 21145 ft | 407 kts | 8° |
| 2026-04-22 18:33 | 50.74737 | 14.19502 | 21575 ft | 411 kts | 8° |
| 2026-04-22 18:33 | 50.77594 | 14.19901 | 22000 ft | 414 kts | 8° |
| 2026-04-22 18:33 | 50.80470 | 14.20309 | 22423 ft | 417 kts | 9° |
| 2026-04-22 18:34 | 50.83368 | 14.20725 | 22831 ft | 420 kts | 9° |
| 2026-04-22 18:34 | 50.86289 | 14.21149 | 23206 ft | 423 kts | 9° |
| 2026-04-22 18:34 | 50.88237 | 14.21428 | 23456 ft | 426 kts | 8° |
| 2026-04-22 18:34 | 50.91226 | 14.21338 | 23834 ft | 435 kts | 357° |
| 2026-04-22 18:35 | 50.94236 | 14.20683 | 24142 ft | 438 kts | 356° |
| 2026-04-22 18:35 | 50.97270 | 14.20007 | 24445 ft | 442 kts | 356° |
| 2026-04-22 18:35 | 51.00325 | 14.19326 | 24745 ft | 445 kts | 356° |
| 2026-04-22 18:35 | 51.03403 | 14.18643 | 25055 ft | 447 kts | 356° |
| 2026-04-22 18:36 | 51.06492 | 14.17963 | 25366 ft | 449 kts | 356° |
| 2026-04-22 18:36 | 51.09599 | 14.17303 | 25661 ft | 451 kts | 357° |
| 2026-04-22 18:36 | 51.12718 | 14.16679 | 25960 ft | 453 kts | 357° |
| 2026-04-22 18:36 | 51.15857 | 14.16073 | 26257 ft | 455 kts | 358° |
| 2026-04-22 18:37 | 51.19007 | 14.15471 | 26552 ft | 457 kts | 358° |
| 2026-04-22 18:37 | 51.22176 | 14.14861 | 26848 ft | 459 kts | 358° |
| 2026-04-22 18:37 | 51.25355 | 14.14239 | 27133 ft | 461 kts | 358° |
| 2026-04-22 18:37 | 51.28547 | 14.13604 | 27405 ft | 463 kts | 358° |
| 2026-04-22 18:38 | 51.31752 | 14.12960 | 27674 ft | 465 kts | 357° |
| 2026-04-22 18:38 | 51.34972 | 14.12310 | 27929 ft | 467 kts | 358° |
| 2026-04-22 18:38 | 51.38204 | 14.11662 | 28254 ft | 468 kts | 358° |
| 2026-04-22 18:39 | 51.44637 | 14.10068 | 29013 ft | 468 kts | 355° |
| 2026-04-22 18:39 | 51.47835 | 14.09117 | 29447 ft | 467 kts | 354° |
| 2026-04-22 18:39 | 51.51020 | 14.08129 | 29863 ft | 466 kts | 354° |
| 2026-04-22 18:39 | 51.54195 | 14.07148 | 30273 ft | 464 kts | 354° |
| 2026-04-22 18:40 | 51.57365 | 14.06191 | 30617 ft | 464 kts | 354° |
| 2026-04-22 18:40 | 51.60505 | 14.04885 | 30914 ft | 468 kts | 349° |
| 2026-04-22 18:40 | 51.63629 | 14.03399 | 31222 ft | 468 kts | 349° |
| 2026-04-22 18:40 | 51.66744 | 14.01859 | 31524 ft | 468 kts | 349° |
| 2026-04-22 18:41 | 51.69855 | 14.00286 | 31810 ft | 469 kts | 349° |
| 2026-04-22 18:41 | 51.72966 | 13.98709 | 32115 ft | 469 kts | 349° |
| 2026-04-22 18:41 | 51.76076 | 13.97138 | 32428 ft | 468 kts | 350° |
| 2026-04-22 18:41 | 51.79186 | 13.95578 | 32736 ft | 468 kts | 351° |
| 2026-04-22 18:42 | 51.82296 | 13.94029 | 33043 ft | 468 kts | 351° |
| 2026-04-22 18:42 | 51.85408 | 13.92486 | 33337 ft | 468 kts | 351° |
| 2026-04-22 18:42 | 51.88524 | 13.90956 | 33637 ft | 468 kts | 352° |
| 2026-04-22 18:42 | 51.91637 | 13.89438 | 33945 ft | 467 kts | 352° |
| 2026-04-22 18:43 | 51.94755 | 13.87925 | 34187 ft | 468 kts | 352° |
| 2026-04-22 18:43 | 51.97868 | 13.86414 | 34265 ft | 467 kts | 352° |
| 2026-04-22 18:43 | 52.04093 | 13.83366 | 34256 ft | 468 kts | 352° |
| 2026-04-22 18:44 | 52.07171 | 13.81848 | 34456 ft | 469 kts | 352° |
| 2026-04-22 18:44 | 52.10293 | 13.80305 | 34727 ft | 469 kts | 352° |
| 2026-04-22 18:44 | 52.13455 | 13.78737 | 35021 ft | 468 kts | 351° |
| 2026-04-22 18:44 | 52.16526 | 13.77212 | 35315 ft | 467 kts | 351° |
| 2026-04-22 18:45 | 52.19633 | 13.75666 | 35612 ft | 466 kts | 351° |
| 2026-04-22 18:45 | 52.22731 | 13.74123 | 35896 ft | 465 kts | 351° |
| 2026-04-22 18:45 | 52.25819 | 13.72587 | 36179 ft | 464 kts | 350° |
| 2026-04-22 18:45 | 52.28905 | 13.71051 | 36264 ft | 463 kts | 350° |
| 2026-04-22 18:46 | 52.35061 | 13.67982 | 36276 ft | 462 kts | 350° |
| 2026-04-22 18:46 | 52.41214 | 13.64909 | 36275 ft | 462 kts | 350° |
| 2026-04-22 18:47 | 52.47364 | 13.61825 | 36258 ft | 462 kts | 350° |
| 2026-04-22 18:47 | 52.53510 | 13.58758 | 36283 ft | 459 kts | 354° |
| 2026-04-22 18:48 | 52.56616 | 13.58068 | 36268 ft | 447 kts | 4° |
| 2026-04-22 18:48 | 52.59716 | 13.57843 | 36265 ft | 446 kts | 5° |
| 2026-04-22 18:48 | 52.65924 | 13.57470 | 36266 ft | 447 kts | 5° |
| 2026-04-22 18:49 | 52.72146 | 13.57104 | 36269 ft | 448 kts | 5° |
| 2026-04-22 18:49 | 52.78373 | 13.56743 | 36272 ft | 448 kts | 5° |
| 2026-04-22 18:50 | 52.84605 | 13.56382 | 36278 ft | 448 kts | 5° |
| 2026-04-22 18:50 | 52.90843 | 13.56021 | 36283 ft | 448 kts | 5° |
| 2026-04-22 18:51 | 52.97077 | 13.55662 | 36267 ft | 448 kts | 5° |
| 2026-04-22 18:51 | 53.03315 | 13.55247 | 36276 ft | 452 kts | 0° |
| 2026-04-22 18:52 | 53.06412 | 13.54033 | 36280 ft | 465 kts | 347° |
| 2026-04-22 18:52 | 53.09452 | 13.52155 | 36276 ft | 466 kts | 347° |
| 2026-04-22 18:52 | 53.15512 | 13.48304 | 36275 ft | 466 kts | 346° |
| 2026-04-22 18:53 | 53.21526 | 13.44427 | 36271 ft | 467 kts | 346° |
| 2026-04-22 18:53 | 53.27622 | 13.40507 | 36279 ft | 466 kts | 346° |
| 2026-04-22 18:54 | 53.33687 | 13.36632 | 36272 ft | 467 kts | 346° |
| 2026-04-22 18:54 | 53.39714 | 13.32766 | 36272 ft | 467 kts | 346° |
| 2026-04-22 18:55 | 53.45779 | 13.28851 | 36272 ft | 467 kts | 346° |
| 2026-04-22 18:55 | 53.51840 | 13.24926 | 36252 ft | 467 kts | 346° |
| 2026-04-22 18:56 | 53.57886 | 13.20996 | 36269 ft | 466 kts | 346° |
| 2026-04-22 18:56 | 53.63934 | 13.17068 | 36270 ft | 465 kts | 346° |
| 2026-04-22 18:57 | 53.69972 | 13.13128 | 36269 ft | 466 kts | 346° |
| 2026-04-22 18:57 | 53.72992 | 13.11154 | 36164 ft | 464 kts | 346° |
| 2026-04-22 18:57 | 53.76007 | 13.09196 | 35417 ft | 465 kts | 347° |
| 2026-04-22 18:58 | 53.79040 | 13.07245 | 34561 ft | 468 kts | 347° |
| 2026-04-22 18:58 | 53.82082 | 13.05295 | 33738 ft | 468 kts | 347° |
| 2026-04-22 18:58 | 53.85134 | 13.03336 | 32834 ft | 469 kts | 347° |
| 2026-04-22 18:58 | 53.88192 | 13.01369 | 31894 ft | 471 kts | 346° |
| 2026-04-22 18:59 | 53.91265 | 12.99381 | 30932 ft | 474 kts | 346° |
| 2026-04-22 18:59 | 53.94353 | 12.97367 | 29896 ft | 477 kts | 345° |
| 2026-04-22 18:59 | 53.97455 | 12.95335 | 28769 ft | 479 kts | 344° |
| 2026-04-22 18:59 | 54.00562 | 12.93301 | 27685 ft | 479 kts | 343° |
| 2026-04-22 19:00 | 54.03676 | 12.91266 | 26607 ft | 479 kts | 343° |
| 2026-04-22 19:00 | 54.06770 | 12.89244 | 25935 ft | 470 kts | 342° |
| 2026-04-22 19:00 | 54.09776 | 12.87269 | 25420 ft | 458 kts | 342° |
| 2026-04-22 19:00 | 54.12725 | 12.85330 | 24746 ft | 450 kts | 342° |
| 2026-04-22 19:01 | 54.15628 | 12.83426 | 24070 ft | 444 kts | 341° |
| 2026-04-22 19:01 | 54.18497 | 12.81543 | 23338 ft | 439 kts | 341° |
| 2026-04-22 19:01 | 54.21328 | 12.79676 | 22565 ft | 434 kts | 341° |
| 2026-04-22 19:01 | 54.24129 | 12.77822 | 21857 ft | 429 kts | 341° |
| 2026-04-22 19:02 | 54.26859 | 12.76014 | 21209 ft | 424 kts | 341° |
| 2026-04-22 19:02 | 54.29598 | 12.74233 | 20574 ft | 418 kts | 343° |
| 2026-04-22 19:02 | 54.32426 | 12.73325 | 20286 ft | 413 kts | 359° |
| 2026-04-22 19:02 | 54.35294 | 12.73313 | 20244 ft | 412 kts | 2° |
| 2026-04-22 19:03 | 54.38165 | 12.73351 | 20260 ft | 413 kts | 1° |
| 2026-04-22 19:03 | 54.41039 | 12.73265 | 20255 ft | 413 kts | 359° |
| 2026-04-22 19:03 | 54.43908 | 12.73034 | 20256 ft | 413 kts | 358° |
| 2026-04-22 19:03 | 54.46778 | 12.72718 | 20256 ft | 413 kts | 358° |
| 2026-04-22 19:04 | 54.49650 | 12.72379 | 20252 ft | 413 kts | 358° |
| 2026-04-22 19:04 | 54.52493 | 12.72052 | 19759 ft | 407 kts | 358° |
| 2026-04-22 19:04 | 54.55316 | 12.71751 | 19353 ft | 406 kts | 358° |
| 2026-04-22 19:04 | 54.58137 | 12.71473 | 19226 ft | 405 kts | 358° |
| 2026-04-22 19:05 | 54.60953 | 12.71211 | 19251 ft | 406 kts | 359° |
| 2026-04-22 19:05 | 54.63773 | 12.70957 | 19255 ft | 406 kts | 359° |
| 2026-04-22 19:05 | 54.66593 | 12.70703 | 19258 ft | 406 kts | 359° |
| 2026-04-22 19:05 | 54.69413 | 12.70448 | 19258 ft | 406 kts | 359° |
| 2026-04-22 19:06 | 54.72230 | 12.70190 | 19249 ft | 405 kts | 359° |
| 2026-04-22 19:06 | 54.75024 | 12.69930 | 18775 ft | 400 kts | 358° |
| 2026-04-22 19:06 | 54.77788 | 12.69668 | 18074 ft | 396 kts | 358° |
| 2026-04-22 19:07 | 54.83235 | 12.69148 | 16756 ft | 388 kts | 358° |
| 2026-04-22 19:07 | 54.85912 | 12.68893 | 16148 ft | 383 kts | 358° |
| 2026-04-22 19:07 | 54.88559 | 12.68644 | 15558 ft | 379 kts | 358° |
| 2026-04-22 19:07 | 54.91175 | 12.68399 | 14966 ft | 375 kts | 357° |
| 2026-04-22 19:08 | 54.93764 | 12.68154 | 14397 ft | 371 kts | 357° |
| 2026-04-22 19:08 | 54.96329 | 12.67912 | 13816 ft | 367 kts | 357° |
| 2026-04-22 19:08 | 54.98863 | 12.67673 | 13188 ft | 363 kts | 357° |
| 2026-04-22 19:08 | 55.01369 | 12.67433 | 12570 ft | 359 kts | 356° |
| 2026-04-22 19:09 | 55.03845 | 12.67175 | 11970 ft | 354 kts | 356° |
| 2026-04-22 19:09 | 55.06291 | 12.66899 | 11371 ft | 350 kts | 356° |
| 2026-04-22 19:09 | 55.07875 | 12.66712 | 11268 ft | 339 kts | 356° |
| 2026-04-22 19:09 | 55.10947 | 12.66344 | 10807 ft | 326 kts | 356° |
| 2026-04-22 19:10 | 55.13192 | 12.66079 | 10325 ft | 321 kts | 356° |
| 2026-04-22 19:10 | 55.15350 | 12.65830 | 10158 ft | 298 kts | 356° |
| 2026-04-22 19:10 | 55.17359 | 12.65599 | 9638 ft | 284 kts | 356° |
| 2026-04-22 19:10 | 55.19308 | 12.65380 | 8905 ft | 278 kts | 355° |
| 2026-04-22 19:11 | 55.21226 | 12.65167 | 8143 ft | 275 kts | 355° |
| 2026-04-22 19:11 | 55.23129 | 12.65388 | 7441 ft | 277 kts | 11° |
| 2026-04-22 19:11 | 55.24923 | 12.66613 | 7042 ft | 278 kts | 25° |
| 2026-04-22 19:11 | 55.26617 | 12.68250 | 6584 ft | 277 kts | 25° |
| 2026-04-22 19:12 | 55.28301 | 12.69879 | 6110 ft | 276 kts | 25° |
| 2026-04-22 19:12 | 55.29977 | 12.71503 | 5646 ft | 274 kts | 25° |
| 2026-04-22 19:12 | 55.31618 | 12.73094 | 5388 ft | 266 kts | 25° |
| 2026-04-22 19:12 | 55.33271 | 12.74441 | 4985 ft | 258 kts | 11° |
| 2026-04-22 19:13 | 55.35017 | 12.74586 | 4543 ft | 250 kts | 348° |
| 2026-04-22 19:13 | 55.36609 | 12.73471 | 4093 ft | 247 kts | 324° |
| 2026-04-22 19:13 | 55.37809 | 12.71332 | 4011 ft | 248 kts | 309° |
| 2026-04-22 19:13 | 55.38860 | 12.68979 | 4013 ft | 242 kts | 309° |
| 2026-04-22 19:14 | 55.39888 | 12.66686 | 3976 ft | 233 kts | 309° |
| 2026-04-22 19:14 | 55.40844 | 12.64531 | 3856 ft | 220 kts | 309° |
| 2026-04-22 19:14 | 55.41760 | 12.62457 | 3721 ft | 209 kts | 309° |
| 2026-04-22 19:14 | 55.42629 | 12.60487 | 3595 ft | 199 kts | 309° |
| 2026-04-22 19:15 | 55.43195 | 12.59205 | 3506 ft | 193 kts | 309° |
| 2026-04-22 19:15 | 55.44258 | 12.56798 | 3244 ft | 186 kts | 309° |
| 2026-04-22 19:15 | 55.45049 | 12.55008 | 2974 ft | 185 kts | 309° |
| 2026-04-22 19:15 | 55.45837 | 12.53227 | 2699 ft | 184 kts | 309° |
| 2026-04-22 19:16 | 55.46622 | 12.51456 | 2429 ft | 183 kts | 309° |
| 2026-04-22 19:16 | 55.47405 | 12.49694 | 2147 ft | 182 kts | 309° |
| 2026-04-22 19:16 | 55.48333 | 12.48247 | 2020 ft | 181 kts | 336° |
| 2026-04-22 19:16 | 55.49554 | 12.47797 | 2028 ft | 176 kts | 354° |
| 2026-04-22 19:17 | 55.50702 | 12.48152 | 2031 ft | 163 kts | 14° |
| 2026-04-22 19:17 | 55.51723 | 12.48917 | 1968 ft | 161 kts | 26° |
| 2026-04-22 19:17 | 55.52583 | 12.50182 | 1779 ft | 159 kts | 33° |
| 2026-04-22 19:17 | 55.53422 | 12.51444 | 1572 ft | 158 kts | 33° |
| 2026-04-22 19:18 | 55.54254 | 12.52712 | 1359 ft | 158 kts | 33° |
| 2026-04-22 19:18 | 55.55020 | 12.54124 | 1244 ft | 162 kts | 49° |
| 2026-04-22 19:18 | 55.55645 | 12.55818 | 1248 ft | 165 kts | 50° |
| 2026-04-22 19:18 | 55.56341 | 12.57309 | 1029 ft | 151 kts | 35° |
| 2026-04-22 19:19 | 55.57102 | 12.58492 | 851 ft | 141 kts | 32° |
| 2026-04-22 19:19 | 55.57874 | 12.59560 | 701 ft | 141 kts | 34° |
| 2026-04-22 19:19 | 55.58614 | 12.60686 | 490 ft | 140 kts | 37° |
| 2026-04-22 19:19 | 55.59345 | 12.61819 | 310 ft | 140 kts | 38° |
| 2026-04-22 19:20 | 55.60080 | 12.62940 | 117 ft | 139 kts | 37° |
| 2026-04-22 19:20 | 55.60789 | 12.64038 | 28 ft | 125 kts | 41° |
| 2026-04-22 19:20 | 55.61227 | 12.64721 | 26 ft | 46 kts | 41° |
| 2026-04-22 19:20 | 55.61432 | 12.65020 | 26 ft | 24 kts | 31° |
| 2026-04-22 19:21 | 55.61596 | 12.65014 | 24 ft | 25 kts | 331° |
| 2026-04-22 19:21 | 55.61729 | 12.64827 | 24 ft | 18 kts | 328° |
| 2026-04-22 19:21 | 55.61857 | 12.64795 | 24 ft | 20 kts | 13° |
| 2026-04-22 19:21 | 55.61968 | 12.64897 | 25 ft | 14 kts | 33° |
| 2026-04-22 19:22 | 55.62058 | 12.65002 | 24 ft | 17 kts | 34° |
| 2026-04-22 19:22 | 55.62124 | 12.65080 | 25 ft | 16 kts | 32° |
| 2026-04-22 19:22 | 55.62214 | 12.65008 | 24 ft | 17 kts | 303° |
| 2026-04-22 19:22 | 55.62283 | 12.64821 | 24 ft | 19 kts | 303° |
| 2026-04-22 19:23 | 55.62351 | 12.64655 | 26 ft | 12 kts | 323° |
| 2026-04-22 19:23 | 55.62442 | 12.64666 | 24 ft | 15 kts | 2° |
| 2026-04-22 19:23 | 55.62551 | 12.64652 | 24 ft | 17 kts | 358° |
| 2026-04-22 19:23 | 55.62642 | 12.64621 | 24 ft | 12 kts | 291° |
| 2026-04-22 19:24 | 55.62648 | 12.64565 | 24 ft | 0 kts | 281° |